Time;durP1;ratioP1;P1;durP2;ratioP2;P2;SDS_P1;SDS_P2;PMS_P1;PMS_P2;Temp;Humidity;BMP_temperature;BMP_pressure;BME280_temperature;BME280_humidity;BME280_pressure;Samples;Min_cycle;Max_cycle;Signal;HPM_P1;HPM_P2
2023/08/10 00:00:16;;;;;;;0.80;0.30;;;13.00;99.90;;;;;;4943458;28;20117;-81
2023/08/10 00:02:43;;;;;;;2.05;0.30;;;13.00;99.90;;;;;;4945416;28;20027;-82
2023/08/10 00:05:09;;;;;;;0.88;0.20;;;13.00;99.90;;;;;;4960550;28;20475;-80
2023/08/10 00:07:35;;;;;;;1.63;0.30;;;13.00;99.90;;;;;;4946189;28;20042;-82
2023/08/10 00:10:03;;;;;;;1.98;0.30;;;13.10;99.90;;;;;;4955267;28;20503;-81
2023/08/10 00:12:29;;;;;;;2.80;0.30;;;13.10;99.90;;;;;;4941837;28;20109;-82
2023/08/10 00:14:55;;;;;;;0.57;0.20;;;13.10;99.90;;;;;;4949520;28;20118;-81
2023/08/10 00:17:20;;;;;;;0.57;0.22;;;13.10;99.90;;;;;;4947192;28;20035;-81
2023/08/10 00:19:46;;;;;;;4.25;0.40;;;13.10;99.90;;;;;;4964901;28;20033;-81
2023/08/10 00:22:14;;;;;;;1.23;0.30;;;13.10;99.90;;;;;;4957167;28;20125;-81
2023/08/10 00:24:40;;;;;;;0.57;0.25;;;13.10;99.90;;;;;;4972818;28;20019;-81
2023/08/10 00:27:06;;;;;;;1.65;0.20;;;13.20;99.90;;;;;;4956990;28;20114;-81
2023/08/10 00:29:32;;;;;;;1.50;0.30;;;13.30;99.90;;;;;;4960067;28;20033;-81
2023/08/10 00:31:58;;;;;;;1.25;0.30;;;13.30;99.90;;;;;;4961379;28;20038;-82
2023/08/10 00:34:24;;;;;;;1.45;0.30;;;13.30;99.90;;;;;;4958791;28;20054;-83
2023/08/10 00:36:50;;;;;;;0.63;0.22;;;13.30;99.90;;;;;;4961523;28;20046;-81
2023/08/10 00:39:17;;;;;;;1.25;0.30;;;13.40;99.90;;;;;;4960493;28;20113;-81
2023/08/10 00:41:43;;;;;;;1.92;0.30;;;13.40;99.90;;;;;;4949582;28;20027;-81
2023/08/10 00:44:09;;;;;;;1.02;0.30;;;13.40;99.90;;;;;;4945921;28;20691;-81
2023/08/10 00:46:36;;;;;;;1.38;0.30;;;13.40;99.90;;;;;;4958524;28;20118;-80
2023/08/10 00:49:04;;;;;;;0.70;0.30;;;13.30;99.90;;;;;;4942017;28;20031;-82
2023/08/10 00:51:30;;;;;;;1.27;0.20;;;13.40;99.90;;;;;;4965199;28;20031;-81
2023/08/10 00:53:56;;;;;;;0.85;0.30;;;13.40;99.90;;;;;;4949730;28;20037;-82
2023/08/10 00:56:21;;;;;;;0.43;0.20;;;13.40;99.90;;;;;;4955338;28;20042;-81
2023/08/10 00:58:49;;;;;;;1.40;0.30;;;13.40;99.90;;;;;;4960578;28;20078;-85
2023/08/10 01:01:15;;;;;;;1.75;0.30;;;13.50;99.90;;;;;;4954690;28;20027;-81
2023/08/10 01:03:41;;;;;;;1.67;0.30;;;13.40;99.90;;;;;;4942427;28;20434;-81
2023/08/10 01:06:48;;;;;;;1.10;0.30;;;13.40;99.90;;;;;;4954490;28;20031;-85
2023/08/10 01:09:22;;;;;;;1.23;0.20;;;13.50;99.90;;;;;;4944752;28;20027;-82
2023/08/10 01:12:01;;;;;;;0.40;0.20;;;13.40;99.90;;;;;;4954244;28;20027;-80
2023/08/10 01:14:36;;;;;;;0.70;0.20;;;13.40;99.90;;;;;;4957664;28;20027;-80
2023/08/10 01:17:07;;;;;;;1.05;0.30;;;13.40;99.90;;;;;;4961116;28;20035;-81
2023/08/10 01:19:36;;;;;;;0.80;0.30;;;13.50;99.90;;;;;;4963913;28;20019;-83
2023/08/10 01:22:07;;;;;;;1.33;0.27;;;13.50;99.90;;;;;;4959282;28;20031;-81
2023/08/10 01:24:42;;;;;;;1.35;0.30;;;13.50;99.90;;;;;;4966184;28;20062;-81
2023/08/10 01:27:11;;;;;;;0.70;0.28;;;13.50;99.90;;;;;;4966738;28;20039;-82
2023/08/10 01:29:37;;;;;;;1.23;0.20;;;13.50;99.90;;;;;;4960100;28;20054;-80
2023/08/10 01:32:03;;;;;;;0.73;0.20;;;13.50;99.90;;;;;;4961508;28;20031;-81
2023/08/10 01:34:29;;;;;;;0.88;0.20;;;13.50;99.90;;;;;;4965846;28;20605;-82
2023/08/10 01:36:55;;;;;;;1.40;0.20;;;13.50;99.90;;;;;;4947795;28;20038;-80
2023/08/10 01:39:20;;;;;;;0.98;0.30;;;13.50;99.90;;;;;;4946775;28;20020;-82
2023/08/10 01:41:46;;;;;;;2.08;0.30;;;13.50;99.90;;;;;;4956579;28;20443;-82
2023/08/10 01:44:12;;;;;;;1.95;0.30;;;13.50;99.90;;;;;;4961598;28;20027;-81
2023/08/10 01:46:40;;;;;;;0.82;0.30;;;13.50;99.90;;;;;;4960580;28;20030;-81
2023/08/10 01:49:08;;;;;;;0.77;0.25;;;13.50;99.90;;;;;;4944049;28;20422;-83
2023/08/10 01:51:37;;;;;;;1.40;0.30;;;13.50;99.90;;;;;;4947663;28;20029;-79
2023/08/10 01:54:06;;;;;;;0.50;0.20;;;13.50;99.90;;;;;;4966374;28;20024;-81
2023/08/10 01:56:32;;;;;;;1.35;0.20;;;13.50;99.90;;;;;;4947760;28;20161;-82
2023/08/10 01:58:58;;;;;;;1.48;0.20;;;13.50;99.90;;;;;;4960633;28;20034;-81
2023/08/10 02:01:23;;;;;;;0.70;0.20;;;13.50;99.90;;;;;;4958576;28;20019;-81
2023/08/10 02:03:49;;;;;;;0.95;0.20;;;13.50;99.90;;;;;;4964638;28;20391;-82
2023/08/10 02:06:15;;;;;;;1.70;0.60;;;13.50;99.90;;;;;;4956656;28;20329;-81
2023/08/10 02:08:41;;;;;;;0.82;0.20;;;13.50;99.90;;;;;;4950959;28;20263;-83
2023/08/10 02:11:08;;;;;;;1.58;0.30;;;13.50;99.90;;;;;;4945122;28;20030;-81
2023/08/10 02:13:34;;;;;;;1.20;0.30;;;13.50;99.90;;;;;;4959547;28;20490;-81
2023/08/10 02:16:00;;;;;;;0.80;0.20;;;13.50;99.90;;;;;;4961609;28;20133;-82
2023/08/10 02:18:26;;;;;;;2.10;0.28;;;13.60;99.90;;;;;;4963731;28;20798;-82
2023/08/10 02:20:52;;;;;;;1.05;0.30;;;13.60;99.90;;;;;;4955657;28;20027;-82
2023/08/10 02:23:18;;;;;;;1.00;0.30;;;13.60;99.90;;;;;;4959027;28;20035;-82
2023/08/10 02:25:44;;;;;;;0.65;0.20;;;13.60;99.90;;;;;;4965340;28;20031;-84
2023/08/10 02:28:10;;;;;;;1.85;0.40;;;13.60;99.90;;;;;;4943360;28;20019;-80
2023/08/10 02:30:35;;;;;;;1.00;0.20;;;13.60;99.90;;;;;;4950844;28;20030;-81
2023/08/10 02:33:01;;;;;;;1.00;0.28;;;13.60;99.90;;;;;;4944632;28;20083;-80
2023/08/10 02:35:27;;;;;;;1.13;0.30;;;13.60;99.90;;;;;;4948193;28;20055;-82
2023/08/10 02:37:53;;;;;;;1.00;0.40;;;13.60;99.90;;;;;;4960182;28;20166;-80
2023/08/10 02:40:19;;;;;;;1.70;0.30;;;13.70;99.90;;;;;;4964268;28;20027;-81
2023/08/10 02:42:45;;;;;;;1.90;0.30;;;13.70;99.90;;;;;;4962641;28;20059;-81
2023/08/10 02:45:12;;;;;;;2.15;0.30;;;13.60;99.90;;;;;;4959423;28;20410;-81
2023/08/10 02:47:38;;;;;;;1.42;0.30;;;13.70;99.90;;;;;;4956935;28;20090;-81
2023/08/10 02:50:05;;;;;;;0.98;0.28;;;13.70;99.90;;;;;;4953529;28;20030;-81
2023/08/10 02:52:31;;;;;;;0.90;0.30;;;13.70;99.90;;;;;;4945969;28;20027;-83
2023/08/10 02:54:57;;;;;;;0.90;0.28;;;13.60;99.90;;;;;;4950902;28;20035;-83
2023/08/10 02:57:23;;;;;;;0.93;0.25;;;13.70;99.90;;;;;;4965123;28;20494;-81
2023/08/10 02:59:48;;;;;;;0.98;0.30;;;13.60;99.90;;;;;;4960589;28;20515;-81
2023/08/10 03:02:17;;;;;;;1.08;0.30;;;13.60;99.90;;;;;;4962950;28;20024;-83
2023/08/10 03:04:44;;;;;;;0.88;0.30;;;13.60;99.90;;;;;;4962667;28;20423;-81
2023/08/10 03:07:10;;;;;;;1.20;0.22;;;13.60;99.90;;;;;;4960677;28;20082;-81
2023/08/10 03:09:37;;;;;;;0.80;0.30;;;13.60;99.90;;;;;;4956686;28;20038;-81
2023/08/10 03:12:03;;;;;;;0.73;0.30;;;13.60;99.90;;;;;;4964582;28;20058;-86
2023/08/10 03:14:29;;;;;;;2.15;0.30;;;13.60;99.90;;;;;;4963410;28;20070;-81
2023/08/10 03:16:55;;;;;;;1.98;0.40;;;13.60;99.90;;;;;;4962660;28;20314;-81
2023/08/10 03:19:21;;;;;;;0.60;0.30;;;13.50;99.90;;;;;;4965109;28;20050;-81
2023/08/10 03:21:50;;;;;;;2.03;0.30;;;13.50;99.90;;;;;;4945619;28;20069;-82
2023/08/10 03:24:16;;;;;;;0.98;0.30;;;13.60;99.90;;;;;;4960272;28;20051;-81
2023/08/10 03:26:41;;;;;;;0.90;0.40;;;13.50;99.90;;;;;;4944410;28;20031;-84
2023/08/10 03:29:08;;;;;;;1.45;0.40;;;13.60;99.90;;;;;;4960641;28;20377;-79
2023/08/10 03:31:34;;;;;;;2.45;0.30;;;13.60;99.90;;;;;;4955170;28;20038;-81
2023/08/10 03:34:00;;;;;;;0.90;0.38;;;13.60;99.90;;;;;;4945925;28;20495;-82
2023/08/10 03:36:27;;;;;;;2.75;0.30;;;13.60;99.90;;;;;;4944615;28;20127;-81
2023/08/10 03:38:52;;;;;;;0.70;0.30;;;13.50;99.90;;;;;;4960029;28;20122;-82
2023/08/10 03:41:18;;;;;;;2.28;0.30;;;13.50;99.90;;;;;;4962016;28;20066;-81
2023/08/10 03:43:44;;;;;;;0.90;0.40;;;13.50;99.90;;;;;;4946327;28;20077;-83
2023/08/10 03:46:10;;;;;;;1.23;0.40;;;13.50;99.90;;;;;;4941669;28;20110;-84
2023/08/10 03:48:35;;;;;;;1.55;0.30;;;13.50;99.90;;;;;;4951064;28;20395;-81
2023/08/10 03:51:02;;;;;;;2.60;0.32;;;13.50;99.90;;;;;;4963125;28;20100;-79
2023/08/10 03:53:28;;;;;;;2.08;0.30;;;13.50;99.90;;;;;;4957856;28;20483;-82
2023/08/10 03:55:53;;;;;;;1.67;0.43;;;13.60;99.90;;;;;;4949594;28;20077;-81
2023/08/10 03:58:19;;;;;;;1.63;0.30;;;13.60;99.90;;;;;;4955878;28;20066;-81
2023/08/10 04:00:45;;;;;;;1.95;0.40;;;13.50;99.90;;;;;;4959798;28;20487;-82
2023/08/10 04:03:12;;;;;;;1.20;0.50;;;13.60;99.90;;;;;;4957266;28;20027;-81
2023/08/10 04:05:39;;;;;;;1.33;0.40;;;13.60;99.90;;;;;;4943733;28;20053;-81
2023/08/10 04:08:08;;;;;;;1.27;0.40;;;13.60;99.90;;;;;;4960110;28;20559;-81
2023/08/10 04:10:34;;;;;;;1.92;0.38;;;13.60;99.90;;;;;;4942660;29;20027;-82
2023/08/10 04:13:00;;;;;;;0.80;0.30;;;13.60;99.90;;;;;;4958913;28;20027;-81
2023/08/10 04:15:30;;;;;;;1.00;0.40;;;13.60;99.90;;;;;;4948140;28;20117;-85
2023/08/10 04:17:56;;;;;;;1.88;0.40;;;13.60;99.90;;;;;;4944471;28;20038;-81
2023/08/10 04:20:22;;;;;;;2.30;0.30;;;13.60;99.90;;;;;;4943059;28;20463;-81
2023/08/10 04:22:48;;;;;;;1.58;0.30;;;13.60;99.90;;;;;;4960931;28;20074;-81
2023/08/10 04:25:13;;;;;;;0.95;0.30;;;13.60;99.90;;;;;;4962404;28;20037;-82
2023/08/10 04:27:40;;;;;;;1.77;0.40;;;13.50;99.90;;;;;;4958136;28;20044;-82
2023/08/10 04:30:08;;;;;;;1.35;0.30;;;13.50;99.90;;;;;;4965464;28;20035;-81
2023/08/10 04:32:35;;;;;;;0.82;0.30;;;13.40;99.90;;;;;;4943739;28;20479;-82
2023/08/10 04:35:02;;;;;;;1.40;0.40;;;13.40;99.90;;;;;;4942943;28;20054;-81
2023/08/10 04:37:28;;;;;;;2.70;0.50;;;13.40;99.90;;;;;;4941324;28;20027;-80
2023/08/10 04:39:53;;;;;;;0.85;0.30;;;13.40;99.90;;;;;;4957784;28;20173;-81
2023/08/10 04:42:19;;;;;;;1.30;0.30;;;13.40;99.90;;;;;;4958725;28;20075;-81
2023/08/10 04:44:45;;;;;;;1.15;0.40;;;13.50;99.90;;;;;;4963826;28;20106;-82
2023/08/10 04:47:11;;;;;;;0.82;0.32;;;13.50;99.90;;;;;;4944391;28;20379;-82
2023/08/10 04:49:37;;;;;;;1.10;0.40;;;13.60;99.90;;;;;;4954892;28;20035;-80
2023/08/10 04:52:03;;;;;;;1.05;0.40;;;13.60;99.90;;;;;;4943996;28;20026;-82
2023/08/10 04:54:29;;;;;;;1.40;0.40;;;13.70;99.90;;;;;;4945530;28;20030;-80
2023/08/10 04:56:54;;;;;;;1.77;0.30;;;13.70;99.90;;;;;;4948064;28;20047;-81
2023/08/10 04:59:20;;;;;;;1.17;0.40;;;13.80;99.90;;;;;;4956443;28;20450;-82
2023/08/10 05:01:46;;;;;;;1.40;0.40;;;13.80;99.90;;;;;;4966332;28;20027;-80
2023/08/10 05:04:14;;;;;;;0.82;0.30;;;13.70;99.90;;;;;;4963917;28;20042;-81
2023/08/10 05:06:40;;;;;;;1.80;0.40;;;13.70;99.90;;;;;;4944623;28;20431;-81
2023/08/10 05:09:06;;;;;;;2.65;0.40;;;13.80;99.90;;;;;;4963948;28;20054;-81
2023/08/10 05:11:32;;;;;;;1.75;0.35;;;13.80;99.90;;;;;;4960833;28;20082;-81
2023/08/10 05:13:59;;;;;;;0.90;0.30;;;13.80;99.90;;;;;;4961021;28;20131;-81
2023/08/10 05:16:24;;;;;;;1.15;0.40;;;13.80;99.90;;;;;;4960359;28;20035;-81
2023/08/10 05:18:50;;;;;;;1.98;0.40;;;13.80;99.90;;;;;;4945660;28;20031;-84
2023/08/10 05:21:17;;;;;;;1.00;0.50;;;13.80;99.90;;;;;;4933615;28;20086;-83
2023/08/10 05:23:43;;;;;;;0.90;0.40;;;13.90;99.90;;;;;;4950179;28;20211;-83
2023/08/10 05:26:10;;;;;;;1.38;0.38;;;13.90;99.90;;;;;;4950729;28;20047;-81
2023/08/10 05:28:36;;;;;;;1.52;0.50;;;13.90;99.90;;;;;;4942476;28;20071;-81
2023/08/10 05:31:02;;;;;;;1.95;0.50;;;14.10;99.90;;;;;;4953862;28;20058;-81
2023/08/10 05:33:27;;;;;;;1.45;0.40;;;14.10;99.90;;;;;;4948200;28;20150;-83
2023/08/10 05:35:53;;;;;;;1.55;0.40;;;14.10;99.90;;;;;;4943737;28;20039;-84
2023/08/10 05:38:19;;;;;;;1.30;0.50;;;14.10;99.90;;;;;;4942430;28;20058;-80
2023/08/10 05:40:44;;;;;;;1.63;0.40;;;14.20;99.90;;;;;;4962821;28;20118;-84
2023/08/10 05:43:10;;;;;;;1.17;0.30;;;14.20;99.90;;;;;;4961898;28;20472;-82
2023/08/10 05:45:36;;;;;;;2.15;0.40;;;14.30;99.90;;;;;;4942779;28;20053;-81
2023/08/10 05:48:09;;;;;;;2.60;0.57;;;14.30;99.90;;;;;;4962796;28;20039;-81
2023/08/10 05:50:35;;;;;;;1.33;0.40;;;14.30;99.90;;;;;;4957816;28;20031;-84
2023/08/10 05:53:01;;;;;;;1.20;0.35;;;14.40;99.90;;;;;;4943124;28;20067;-80
2023/08/10 05:55:26;;;;;;;2.63;0.55;;;14.50;99.90;;;;;;4956275;28;20191;-83
2023/08/10 05:57:52;;;;;;;3.65;0.50;;;14.50;99.90;;;;;;4942987;28;20387;-80
2023/08/10 06:00:18;;;;;;;1.60;0.40;;;14.70;99.90;;;;;;4945581;28;20035;-82
2023/08/10 06:02:45;;;;;;;2.42;0.60;;;14.80;99.90;;;;;;4963722;28;20038;-81
2023/08/10 06:05:12;;;;;;;1.83;0.40;;;14.90;99.90;;;;;;4962901;28;20406;-80
2023/08/10 06:07:38;;;;;;;2.28;0.40;;;15.10;99.90;;;;;;4944224;28;20026;-82
2023/08/10 06:10:05;;;;;;;1.98;0.30;;;15.20;99.90;;;;;;4961691;28;20038;-83
2023/08/10 06:12:31;;;;;;;0.82;0.30;;;15.40;99.90;;;;;;4959770;28;20094;-81
2023/08/10 06:14:58;;;;;;;1.52;0.40;;;15.60;99.90;;;;;;4953162;28;20039;-82
2023/08/10 06:17:23;;;;;;;1.30;0.30;;;15.80;99.90;;;;;;4965149;28;20031;-81
2023/08/10 06:19:53;;;;;;;1.75;0.50;;;16.00;99.90;;;;;;4957807;28;20383;-83
2023/08/10 06:22:19;;;;;;;2.47;0.50;;;16.00;99.90;;;;;;4961422;28;20472;-81
2023/08/10 06:24:46;;;;;;;2.08;0.65;;;16.00;99.90;;;;;;4960219;28;20027;-80
2023/08/10 06:27:12;;;;;;;2.78;0.45;;;16.10;99.90;;;;;;4957395;28;20495;-83
2023/08/10 06:29:37;;;;;;;4.80;0.60;;;16.30;99.90;;;;;;4960504;28;20114;-81
2023/08/10 06:32:07;;;;;;;2.08;0.30;;;16.30;99.90;;;;;;4959599;28;20030;-81
2023/08/10 06:34:34;;;;;;;2.80;0.40;;;16.50;99.90;;;;;;4964990;28;20047;-81
2023/08/10 06:37:00;;;;;;;1.20;0.40;;;16.70;99.90;;;;;;4954470;28;20495;-81
2023/08/10 06:39:29;;;;;;;2.85;0.60;;;17.00;99.90;;;;;;4959437;28;20027;-81
2023/08/10 06:41:55;;;;;;;1.73;0.40;;;17.00;99.90;;;;;;4976671;28;20042;-81
2023/08/10 06:44:27;;;;;;;1.08;0.20;;;17.20;99.90;;;;;;4958063;28;20275;-82
2023/08/10 06:46:52;;;;;;;1.90;0.40;;;17.50;99.90;;;;;;4961472;28;20027;-82
2023/08/10 06:49:21;;;;;;;1.25;0.30;;;17.70;99.90;;;;;;4946437;28;20027;-83
2023/08/10 06:51:47;;;;;;;1.25;0.30;;;17.70;99.90;;;;;;4949029;28;20108;-80
2023/08/10 06:54:13;;;;;;;0.73;0.20;;;17.80;99.90;;;;;;4961192;28;20070;-81
2023/08/10 06:56:39;;;;;;;3.33;0.22;;;18.00;99.90;;;;;;4957321;28;20488;-82
2023/08/10 06:59:04;;;;;;;1.90;0.30;;;18.20;99.90;;;;;;4961664;28;20468;-80
2023/08/10 07:01:30;;;;;;;1.73;0.43;;;18.00;99.90;;;;;;4957093;28;20413;-81
2023/08/10 07:03:56;;;;;;;1.30;0.28;;;18.20;99.90;;;;;;4958202;28;20455;-82
2023/08/10 07:06:22;;;;;;;1.20;0.20;;;18.40;99.90;;;;;;4965379;28;20383;-85
2023/08/10 07:08:52;;;;;;;0.70;0.15;;;18.60;99.90;;;;;;4965428;28;20034;-82
2023/08/10 07:11:17;;;;;;;1.40;0.20;;;18.70;99.90;;;;;;4945426;28;20034;-82
2023/08/10 07:13:44;;;;;;;0.90;0.20;;;18.60;99.90;;;;;;4960182;28;20027;-80
2023/08/10 07:16:09;;;;;;;1.58;0.20;;;18.50;99.90;;;;;;4962230;28;20294;-83
2023/08/10 07:18:35;;;;;;;0.68;0.20;;;18.80;99.90;;;;;;4945465;28;20023;-80
2023/08/10 07:21:02;;;;;;;0.73;0.10;;;18.90;99.90;;;;;;4951532;28;20031;-81
2023/08/10 07:23:28;;;;;;;0.30;0.10;;;18.90;99.90;;;;;;4958143;28;20030;-81
2023/08/10 07:25:54;;;;;;;0.65;0.10;;;19.10;99.90;;;;;;4960582;28;20411;-82
2023/08/10 07:28:23;;;;;;;0.65;0.13;;;19.30;99.90;;;;;;4960034;28;20170;-81
2023/08/10 07:30:50;;;;;;;0.60;0.10;;;18.50;99.90;;;;;;4966232;28;20526;-81
2023/08/10 07:33:16;;;;;;;0.60;0.10;;;18.50;99.90;;;;;;4961240;28;20407;-80
2023/08/10 07:35:41;;;;;;;0.88;0.10;;;18.90;99.90;;;;;;4945503;28;20045;-85
2023/08/10 07:38:07;;;;;;;0.60;0.10;;;19.00;99.90;;;;;;4958977;28;20023;-81
2023/08/10 07:40:33;;;;;;;1.20;0.10;;;19.40;99.90;;;;;;4941295;28;20035;-83
2023/08/10 07:42:59;;;;;;;0.68;0.10;;;19.60;99.90;;;;;;4956980;28;20110;-80
2023/08/10 07:45:25;;;;;;;0.90;0.10;;;19.80;99.90;;;;;;4956102;28;20031;-80
2023/08/10 07:47:50;;;;;;;0.20;0.03;;;19.40;99.90;;;;;;4965993;28;20023;-80
2023/08/10 07:50:17;;;;;;;0.85;0.10;;;19.70;99.90;;;;;;4958598;28;20042;-81
2023/08/10 07:52:43;;;;;;;1.98;0.20;;;20.10;99.90;;;;;;4956683;28;20023;-82
2023/08/10 07:55:11;;;;;;;0.80;0.10;;;20.00;99.90;;;;;;4942988;28;20031;-82
2023/08/10 07:57:37;;;;;;;0.90;0.10;;;20.20;99.90;;;;;;4957455;28;20039;-81
2023/08/10 08:00:05;;;;;;;1.15;0.10;;;20.10;99.90;;;;;;4960263;28;20025;-81
2023/08/10 08:02:38;;;;;;;0.85;0.10;;;20.30;99.90;;;;;;4955345;28;20043;-81
2023/08/10 08:05:04;;;;;;;2.08;0.20;;;19.80;99.90;;;;;;4947747;28;20494;-81
2023/08/10 08:07:32;;;;;;;0.85;0.10;;;19.60;99.90;;;;;;4964880;28;20035;-82
2023/08/10 08:09:59;;;;;;;0.70;0.10;;;20.20;99.90;;;;;;4953571;28;20030;-82
2023/08/10 08:12:28;;;;;;;0.55;0.10;;;20.60;99.90;;;;;;4961179;28;20027;-82
2023/08/10 08:14:54;;;;;;;1.58;0.10;;;20.70;99.90;;;;;;4940240;28;20023;-81
2023/08/10 08:17:21;;;;;;;0.65;0.10;;;20.60;99.90;;;;;;4956215;28;20028;-81
2023/08/10 08:19:47;;;;;;;0.60;0.10;;;20.30;99.90;;;;;;4954209;28;20025;-81
2023/08/10 08:22:13;;;;;;;0.98;0.17;;;20.10;99.90;;;;;;4968120;28;20043;-81
2023/08/10 08:24:39;;;;;;;0.50;0.10;;;19.90;99.90;;;;;;4938268;28;20037;-82
2023/08/10 08:27:04;;;;;;;1.15;0.10;;;20.50;99.90;;;;;;4937185;28;20452;-81
2023/08/10 08:29:31;;;;;;;0.93;0.15;;;20.60;99.90;;;;;;4945083;28;20463;-82
2023/08/10 08:31:57;;;;;;;1.05;0.10;;;20.00;99.90;;;;;;4957829;28;20042;-81
2023/08/10 08:34:23;;;;;;;1.20;0.10;;;19.60;99.90;;;;;;4947558;28;20047;-81
2023/08/10 08:36:48;;;;;;;0.90;0.10;;;19.70;99.90;;;;;;4959942;28;20522;-81
2023/08/10 08:39:14;;;;;;;1.75;0.10;;;20.80;99.90;;;;;;4943690;28;20033;-81
2023/08/10 08:41:41;;;;;;;1.58;0.20;;;21.00;99.90;;;;;;4941965;28;20031;-81
2023/08/10 08:44:08;;;;;;;0.47;0.10;;;20.20;99.90;;;;;;4956164;28;20027;-81
2023/08/10 08:46:40;;;;;;;0.40;0.10;;;21.00;99.90;;;;;;4963907;28;20630;-81
2023/08/10 08:49:06;;;;;;;0.57;0.10;;;20.90;99.90;;;;;;4958638;28;20027;-81
2023/08/10 08:51:33;;;;;;;0.40;0.10;;;20.60;99.90;;;;;;4955249;28;20031;-82
2023/08/10 08:54:02;;;;;;;0.30;0.00;;;20.40;99.90;;;;;;4945881;28;20043;-82
2023/08/10 08:56:28;;;;;;;1.10;0.10;;;21.20;99.90;;;;;;4937062;28;20300;-81
2023/08/10 08:58:54;;;;;;;1.17;0.10;;;20.70;99.90;;;;;;4960424;28;20050;-83
2023/08/10 09:01:21;;;;;;;0.45;0.10;;;21.00;99.90;;;;;;4948703;28;20046;-82
2023/08/10 09:03:47;;;;;;;0.68;0.20;;;21.10;99.90;;;;;;4959432;28;20035;-82
2023/08/10 09:06:13;;;;;;;0.28;0.10;;;20.90;99.90;;;;;;4956400;28;20030;-82
2023/08/10 09:08:39;;;;;;;1.08;0.20;;;20.70;99.90;;;;;;4962343;28;20057;-81
2023/08/10 09:11:05;;;;;;;0.82;0.10;;;20.60;99.90;;;;;;4961996;28;20027;-81
2023/08/10 09:13:31;;;;;;;0.68;0.10;;;20.60;99.90;;;;;;4942208;28;20110;-81
2023/08/10 09:16:08;;;;;;;0.60;0.10;;;20.60;99.90;;;;;;4946097;28;20162;-80
2023/08/10 09:18:36;;;;;;;1.27;0.10;;;20.40;99.90;;;;;;4941544;28;20049;-81
2023/08/10 09:21:14;;;;;;;0.70;0.20;;;20.60;99.90;;;;;;4955476;28;20062;-81
2023/08/10 09:23:41;;;;;;;0.80;0.10;;;21.20;99.90;;;;;;4956410;28;20067;-83
2023/08/10 09:26:11;;;;;;;1.85;0.15;;;21.50;99.90;;;;;;4956682;28;20379;-82
2023/08/10 09:28:37;;;;;;;;;;;21.30;99.90;;;;;;4946888;28;20502;-82
2023/08/10 09:31:04;;;;;;;0.80;0.10;;;21.90;99.90;;;;;;4959014;28;19914;-86
2023/08/10 09:33:35;;;;;;;0.93;0.15;;;22.40;99.90;;;;;;4956006;28;20097;-83
2023/08/10 09:36:03;;;;;;;0.65;0.10;;;22.80;99.90;;;;;;4957938;28;20039;-81
2023/08/10 09:38:29;;;;;;;0.55;0.15;;;22.90;99.90;;;;;;4950358;28;20038;-84
2023/08/10 09:41:08;;;;;;;2.22;0.10;;;22.10;99.90;;;;;;4961345;28;20034;-81
2023/08/10 09:43:36;;;;;;;0.90;0.20;;;22.30;99.90;;;;;;4965846;28;20153;-84
2023/08/10 09:46:06;;;;;;;0.65;0.20;;;21.70;99.90;;;;;;4958243;28;20118;-83
2023/08/10 09:48:41;;;;;;;1.17;0.17;;;20.90;99.90;;;;;;4968745;28;20467;-81
2023/08/10 09:51:09;;;;;;;0.60;0.15;;;21.50;99.90;;;;;;4947878;28;20038;-81
2023/08/10 09:53:36;;;;;;;1.13;0.10;;;21.90;99.90;;;;;;4957657;28;20031;-81
2023/08/10 09:56:06;;;;;;;0.73;0.10;;;22.30;99.90;;;;;;4962835;28;20067;-83
2023/08/10 09:58:40;;;;;;;0.50;0.10;;;22.50;99.90;;;;;;4966154;28;20055;-83
2023/08/10 10:01:07;;;;;;;1.48;0.20;;;23.20;99.90;;;;;;4941945;28;20046;-83
2023/08/10 10:03:34;;;;;;;1.40;0.30;;;22.40;99.90;;;;;;4959462;28;20024;-83
2023/08/10 10:06:01;;;;;;;0.95;0.25;;;21.90;99.90;;;;;;4945691;28;20031;-81
2023/08/10 10:08:28;;;;;;;1.65;0.20;;;21.70;99.90;;;;;;4955440;28;20051;-80
2023/08/10 10:10:59;;;;;;;1.80;0.35;;;21.90;99.90;;;;;;4958985;28;20137;-81
2023/08/10 10:13:25;;;;;;;1.02;0.20;;;21.50;99.90;;;;;;4949901;28;20041;-83
2023/08/10 10:15:54;;;;;;;1.00;0.30;;;22.40;99.90;;;;;;4958803;28;20487;-80
2023/08/10 10:18:20;;;;;;;0.63;0.20;;;22.40;99.90;;;;;;4948154;28;20747;-81
2023/08/10 10:20:46;;;;;;;1.65;0.30;;;21.90;99.90;;;;;;4947569;28;20083;-80
2023/08/10 10:23:14;;;;;;;0.65;0.20;;;21.70;99.90;;;;;;4956205;28;20069;-83
2023/08/10 10:25:55;;;;;;;0.88;0.25;;;22.70;99.90;;;;;;4958236;28;20415;-80
2023/08/10 10:28:21;;;;;;;1.25;0.30;;;22.00;99.90;;;;;;4955361;28;20402;-81
2023/08/10 10:30:55;;;;;;;0.98;0.20;;;21.50;99.90;;;;;;4959963;28;20119;-83
2023/08/10 10:33:23;;;;;;;0.70;0.20;;;22.50;99.90;;;;;;4956753;28;20054;-81
2023/08/10 10:36:09;;;;;;;0.70;0.10;;;22.80;99.90;;;;;;4954420;28;20063;-81
2023/08/10 10:38:37;;;;;;;2.22;0.20;;;23.00;99.90;;;;;;4947708;28;20059;-81
2023/08/10 10:41:27;;;;;;;3.00;0.30;;;22.50;99.90;;;;;;4946019;28;20049;-80
2023/08/10 10:43:52;;;;;;;1.38;0.30;;;22.20;99.90;;;;;;4957465;28;20019;-84
2023/08/10 10:46:33;;;;;;;0.85;0.20;;;21.80;99.90;;;;;;4956966;28;20034;-81
2023/08/10 10:49:00;;;;;;;0.98;0.20;;;22.60;99.90;;;;;;4958043;28;20046;-81
2023/08/10 10:51:29;;;;;;;0.70;0.20;;;22.90;99.90;;;;;;4953139;28;20027;-83
2023/08/10 10:53:55;;;;;;;0.93;0.20;;;23.50;99.90;;;;;;4957978;28;20039;-81
2023/08/10 10:56:21;;;;;;;1.10;0.20;;;23.50;99.90;;;;;;4957474;28;20075;-83
2023/08/10 10:58:48;;;;;;;1.58;0.20;;;22.90;99.90;;;;;;4955559;28;20098;-80
2023/08/10 11:01:21;;;;;;;0.63;0.25;;;22.30;99.90;;;;;;4955436;28;20114;-79
2023/08/10 11:03:54;;;;;;;1.05;0.40;;;22.50;99.90;;;;;;4956869;28;20045;-81
2023/08/10 11:06:20;;;;;;;1.63;0.30;;;22.20;99.90;;;;;;4955433;28;20074;-81
2023/08/10 11:08:55;;;;;;;1.45;0.30;;;22.60;99.90;;;;;;4955720;28;20030;-80
2023/08/10 11:11:21;;;;;;;1.75;0.30;;;22.30;99.90;;;;;;4946246;28;20852;-80
2023/08/10 11:13:48;;;;;;;1.45;0.20;;;22.80;99.90;;;;;;4958555;28;20082;-82
2023/08/10 11:16:14;;;;;;;0.70;0.17;;;23.50;99.90;;;;;;4948678;28;20545;-79
2023/08/10 11:18:42;;;;;;;1.30;0.30;;;24.10;99.90;;;;;;4955645;28;20213;-81
2023/08/10 11:21:09;;;;;;;3.17;0.50;;;23.30;99.90;;;;;;4945868;28;20038;-79
2023/08/10 11:23:35;;;;;;;2.00;0.30;;;22.60;99.90;;;;;;4954835;28;20042;-81
2023/08/10 11:26:04;;;;;;;1.10;0.30;;;22.10;99.90;;;;;;4957317;28;20498;-83
2023/08/10 11:28:30;;;;;;;1.25;0.50;;;22.50;99.90;;;;;;4956454;28;20041;-80
2023/08/10 11:31:06;;;;;;;0.60;0.20;;;22.70;99.90;;;;;;4960648;28;20027;-80
2023/08/10 11:33:32;;;;;;;0.75;0.20;;;22.80;99.90;;;;;;4960442;28;20040;-80
2023/08/10 11:35:59;;;;;;;0.60;0.20;;;22.70;99.90;;;;;;4954617;28;20491;-78
2023/08/10 11:38:25;;;;;;;0.70;0.20;;;23.50;99.90;;;;;;4953205;28;20037;-79
2023/08/10 11:40:54;;;;;;;1.02;0.30;;;23.80;99.90;;;;;;4955192;28;20395;-80
2023/08/10 11:43:22;;;;;;;2.30;0.50;;;24.30;99.90;;;;;;4958185;28;20504;-79
2023/08/10 11:45:48;;;;;;;2.55;0.88;;;23.80;99.90;;;;;;4971441;28;20602;-85
2023/08/10 11:48:19;;;;;;;1.33;0.47;;;22.90;99.90;;;;;;4957271;28;20114;-79
2023/08/10 11:50:45;;;;;;;1.48;0.70;;;23.60;99.90;;;;;;4953047;28;20069;-80
2023/08/10 11:53:16;;;;;;;1.50;0.50;;;23.30;99.90;;;;;;4958054;28;20027;-85
2023/08/10 11:55:45;;;;;;;1.42;0.40;;;23.30;99.90;;;;;;4956200;28;20069;-82
2023/08/10 11:58:13;;;;;;;1.33;0.30;;;23.00;99.90;;;;;;4959336;28;20093;-80
2023/08/10 12:00:42;;;;;;;2.90;0.50;;;23.00;99.90;;;;;;4943359;28;20136;-80
2023/08/10 12:03:14;;;;;;;1.30;0.47;;;22.80;99.90;;;;;;4962025;28;20471;-80
2023/08/10 12:05:46;;;;;;;1.02;0.30;;;23.20;99.90;;;;;;4955719;28;20035;-83
2023/08/10 12:08:13;;;;;;;1.33;0.30;;;23.60;99.90;;;;;;4953896;28;20031;-80
2023/08/10 12:10:41;;;;;;;1.60;0.40;;;23.90;99.90;;;;;;4960686;28;20074;-82
2023/08/10 12:13:10;;;;;;;2.60;0.60;;;23.70;99.90;;;;;;4956478;28;20110;-80
2023/08/10 12:15:37;;;;;;;1.33;0.40;;;23.40;99.90;;;;;;4961407;28;20503;-81
2023/08/10 12:18:05;;;;;;;1.60;0.40;;;23.80;99.90;;;;;;4945830;28;20055;-79
2023/08/10 12:20:31;;;;;;;2.25;0.50;;;23.50;99.90;;;;;;4956275;28;20046;-79
2023/08/10 12:22:57;;;;;;;1.35;0.30;;;23.40;99.90;;;;;;4944769;28;20038;-80
2023/08/10 12:25:23;;;;;;;0.95;0.30;;;23.90;99.90;;;;;;4955392;28;20625;-80
2023/08/10 12:27:49;;;;;;;0.70;0.30;;;24.00;99.90;;;;;;4958587;28;20031;-79
2023/08/10 12:30:15;;;;;;;0.85;0.20;;;24.00;99.90;;;;;;4955249;28;20399;-84
2023/08/10 12:32:41;;;;;;;1.77;0.50;;;24.40;99.90;;;;;;4941411;28;20030;-80
2023/08/10 12:35:07;;;;;;;1.02;0.40;;;23.80;99.90;;;;;;4953435;28;20503;-86
2023/08/10 12:37:33;;;;;;;1.50;0.30;;;23.60;99.90;;;;;;4956968;28;20046;-84
2023/08/10 12:39:58;;;;;;;1.08;0.30;;;23.80;99.90;;;;;;4955567;28;20491;-86
2023/08/10 12:42:24;;;;;;;1.20;0.30;;;23.80;99.90;;;;;;4955428;28;20121;-82
2023/08/10 12:44:51;;;;;;;0.88;0.30;;;23.70;99.90;;;;;;4955573;28;20031;-83
2023/08/10 12:47:17;;;;;;;1.08;0.40;;;23.30;99.90;;;;;;4940266;28;20023;-83